Santa Maria, Brazil
Current Conditions -  °F | °C
As of 7:00 PM on Monday 20 Oct 2014 (Local Time) from SBSM Reporting Station
Clear Clear  
Wind Chill: 68°   Ceiling: Unl
Heat Index: 68°   Visibility: 6mi
Dew Point: 54°   Wind: 2mph
Humidity: 60%   Direction: 60°ENE
Pressure: 30.09"   Gusts: NA
Location:  29.69°S, 53.83°W
Report Text: SBSM 202200Z 06002KT CAVOK 20/12 Q1019
Loading
Personal Weather Stations






























Interactive Weather Map
Tropical Storm Tracking
New forecast layout! Learn more

10-Day Weather Forecast

Advertisements
Track Severe Weather on mobile